Time,TemperatureF,DewpointF,PressureIn,WindDirection,WindDirectionDegrees,WindSpeedMPH,WindSpeedGustMPH,Humidity,HourlyPrecipIn,Conditions,Clouds,dailyrainin,SoftwareType,DateUTC
2013-01-22 00:01:00,9.1,1.0,29.98,NW,306,1.0,3.0,70,0.00,,,0.00,weatherlink.com 1.10,2013-01-22 05:01:00,
2013-01-22 00:16:00,9.0,1.0,29.98,SE,130,1.0,2.0,71,0.00,,,0.00,weatherlink.com 1.10,2013-01-22 05:16:00,
2013-01-22 00:31:00,8.9,2.0,29.98,WNW,290,0.0,5.0,72,0.00,,,0.00,weatherlink.com 1.10,2013-01-22 05:31:00,
2013-01-22 00:46:00,9.6,3.0,29.98,WSW,257,0.0,4.0,73,0.00,,,0.00,weatherlink.com 1.10,2013-01-22 05:46:00,
2013-01-22 01:01:00,9.8,3.0,29.98,WSW,239,0.0,3.0,74,0.00,,,0.00,weatherlink.com 1.10,2013-01-22 06:01:00,
2013-01-22 01:16:00,9.9,4.0,29.98,West,269,0.0,7.0,75,0.00,,,0.00,weatherlink.com 1.10,2013-01-22 06:16:00,
2013-01-22 01:33:00,10.2,4.0,29.98,WNW,294,2.0,10.0,77,0.00,,,0.00,weatherlink.com 1.10,2013-01-22 06:33:00,
2013-01-22 01:46:00,10.2,5.0,29.99,NNW,339,2.0,8.0,79,0.00,,,0.00,weatherlink.com 1.10,2013-01-22 06:46:00,
2013-01-22 02:01:00,9.7,4.0,30.00,West,281,3.0,16.0,77,0.00,,,0.00,weatherlink.com 1.10,2013-01-22 07:01:00,
2013-01-22 02:16:00,9.5,3.0,30.00,WNW,299,3.0,10.0,73,0.00,,,0.00,weatherlink.com 1.10,2013-01-22 07:16:00,
2013-01-22 02:31:00,9.2,2.0,30.01,NW,309,6.0,12.0,71,0.00,,,0.00,weatherlink.com 1.10,2013-01-22 07:31:00,
2013-01-22 02:46:00,8.8,1.0,30.02,WNW,285,1.0,8.0,71,0.00,,,0.00,weatherlink.com 1.10,2013-01-22 07:46:00,
2013-01-22 03:02:00,8.9,2.0,30.02,WNW,298,6.0,6.0,73,0.00,,,0.00,weatherlink.com 1.10,2013-01-22 08:02:00,
2013-01-22 03:17:00,8.9,2.0,30.02,NW,304,3.0,8.0,74,0.00,,,0.00,weatherlink.com 1.10,2013-01-22 08:17:00,
2013-01-22 03:32:00,8.7,3.0,30.02,West,274,0.0,6.0,77,0.00,,,0.00,weatherlink.com 1.10,2013-01-22 08:32:00,
2013-01-22 03:47:00,8.4,2.0,30.03,WNW,290,2.0,7.0,74,0.00,,,0.00,weatherlink.com 1.10,2013-01-22 08:47:00,
2013-01-22 04:02:00,8.1,1.0,30.03,West,270,0.0,4.0,72,0.00,,,0.00,weatherlink.com 1.10,2013-01-22 09:02:00,
2013-01-22 04:17:00,7.4,-1.0,30.03,NW,312,2.0,9.0,69,0.00,,,0.00,weatherlink.com 1.10,2013-01-22 09:17:00,
2013-01-22 04:32:00,6.9,-1.0,30.04,NNW,338,0.0,6.0,70,0.00,,,0.00,weatherlink.com 1.10,2013-01-22 09:32:00,
2013-01-22 04:47:00,6.6,-1.0,30.04,WNW,301,2.0,6.0,70,0.00,,,0.00,weatherlink.com 1.10,2013-01-22 09:47:00,
2013-01-22 05:02:00,6.5,-2.0,30.04,NE,53,0.0,8.0,69,0.00,,,0.00,weatherlink.com 1.10,2013-01-22 10:02:00,
2013-01-22 05:17:00,6.2,-2.0,30.05,NNW,331,0.0,6.0,69,0.00,,,0.00,weatherlink.com 1.10,2013-01-22 10:17:00,
2013-01-22 05:32:00,6.0,-2.0,30.05,WNW,286,2.0,5.0,70,0.00,,,0.00,weatherlink.com 1.10,2013-01-22 10:32:00,
2013-01-22 05:47:00,5.9,-2.0,30.06,West,274,2.0,9.0,70,0.00,,,0.00,weatherlink.com 1.10,2013-01-22 10:47:00,
2013-01-22 06:02:00,5.9,-2.0,30.06,West,279,0.0,9.0,70,0.00,,,0.00,weatherlink.com 1.10,2013-01-22 11:02:00,
2013-01-22 06:18:00,5.9,-2.0,30.07,NW,318,0.0,8.0,70,0.00,,,0.00,weatherlink.com 1.10,2013-01-22 11:18:00,
2013-01-22 06:33:00,5.6,-2.0,30.08,WSW,238,2.0,5.0,70,0.00,,,0.00,weatherlink.com 1.10,2013-01-22 11:33:00,
2013-01-22 06:48:00,5.2,-2.0,30.08,NW,309,1.0,4.0,71,0.00,,,0.00,weatherlink.com 1.10,2013-01-22 11:48:00,
2013-01-22 07:03:00,5.3,-3.0,30.09,NW,319,2.0,5.0,70,0.00,,,0.00,weatherlink.com 1.10,2013-01-22 12:03:00,
2013-01-22 07:18:00,5.3,-2.0,30.10,NW,311,0.0,7.0,71,0.00,,,0.00,weatherlink.com 1.10,2013-01-22 12:18:00,
2013-01-22 07:33:00,5.4,-2.0,30.10,WSW,242,2.0,7.0,72,0.00,,,0.00,weatherlink.com 1.10,2013-01-22 12:33:00,
2013-01-22 07:48:00,5.5,-2.0,30.10,West,274,2.0,11.0,72,0.00,,,0.00,weatherlink.com 1.10,2013-01-22 12:48:00,
2013-01-22 08:03:00,5.5,-2.0,30.11,WNW,293,7.0,13.0,71,0.00,,,0.00,weatherlink.com 1.10,2013-01-22 13:03:00,
2013-01-22 08:18:00,5.5,-2.0,30.11,WNW,303,1.0,8.0,71,0.00,,,0.00,weatherlink.com 1.10,2013-01-22 13:18:00,
2013-01-22 08:33:00,5.8,-2.0,30.11,NNW,333,2.0,8.0,71,0.00,,,0.00,weatherlink.com 1.10,2013-01-22 13:33:00,
2013-01-22 08:48:00,6.3,-2.0,30.12,WSW,249,0.0,11.0,70,0.00,,,0.00,weatherlink.com 1.10,2013-01-22 13:48:00,
2013-01-22 09:03:00,6.8,-1.0,30.13,WNW,300,2.0,7.0,69,0.00,,,0.00,weatherlink.com 1.10,2013-01-22 14:03:00,
2013-01-22 09:18:00,7.2,-1.0,30.13,WNW,297,8.0,8.0,68,0.00,,,0.00,weatherlink.com 1.10,2013-01-22 14:18:00,
2013-01-22 09:34:00,7.3,-1.0,30.14,WNW,283,6.0,11.0,68,0.00,,,0.00,weatherlink.com 1.10,2013-01-22 14:34:00,
2013-01-22 09:49:00,7.0,-2.0,30.14,NW,322,1.0,10.0,67,0.00,,,0.00,weatherlink.com 1.10,2013-01-22 14:49:00,
2013-01-22 10:04:00,7.1,-2.0,30.15,NNW,329,1.0,12.0,67,0.00,,,0.00,weatherlink.com 1.10,2013-01-22 15:04:00,
2013-01-22 10:19:00,7.1,-2.0,30.15,West,275,4.0,9.0,66,0.00,,,0.00,weatherlink.com 1.10,2013-01-22 15:19:00,
2013-01-22 10:34:00,7.9,-1.0,30.15,SW,232,4.0,8.0,67,0.00,,,0.00,weatherlink.com 1.10,2013-01-22 15:34:00,
2013-01-22 10:49:00,8.5,-1.0,30.16,WNW,282,1.0,11.0,65,0.00,,,0.00,weatherlink.com 1.10,2013-01-22 15:49:00,
2013-01-22 11:04:00,8.7,-1.0,30.15,West,280,2.0,9.0,64,0.00,,,0.00,weatherlink.com 1.10,2013-01-22 16:04:00,
2013-01-22 11:19:00,8.5,-2.0,30.16,WNW,283,8.0,13.0,63,0.00,,,0.00,weatherlink.com 1.10,2013-01-22 16:19:00,
2013-01-22 11:34:00,9.7,-1.0,30.15,WSW,250,4.0,10.0,61,0.00,,,0.00,weatherlink.com 1.10,2013-01-22 16:34:00,
2013-01-22 11:49:00,10.0,-1.0,30.14,West,271,3.0,12.0,61,0.00,,,0.00,weatherlink.com 1.10,2013-01-22 16:49:00,
2013-01-22 12:04:00,9.0,-1.0,30.14,WNW,291,9.0,14.0,65,0.00,,,0.00,weatherlink.com 1.10,2013-01-22 17:04:00,
2013-01-22 12:19:00,9.9,1.0,30.14,WNW,295,9.0,11.0,67,0.00,,,0.00,weatherlink.com 1.10,2013-01-22 17:19:00,
2013-01-22 12:34:00,10.3,-1.0,30.13,WNW,284,3.0,14.0,61,0.00,,,0.00,weatherlink.com 1.10,2013-01-22 17:34:00,
2013-01-22 12:50:00,10.2,1.0,30.13,NW,309,3.0,14.0,65,0.00,,,0.00,weatherlink.com 1.10,2013-01-22 17:50:00,
2013-01-22 13:05:00,10.2,1.0,30.12,WSW,240,12.0,12.0,65,0.00,,,0.00,weatherlink.com 1.10,2013-01-22 18:05:00,
2013-01-22 13:20:00,9.9,1.0,30.12,West,272,2.0,10.0,68,0.00,,,0.00,weatherlink.com 1.10,2013-01-22 18:20:00,
2013-01-22 13:35:00,9.3,3.0,30.12,WNW,287,5.0,11.0,74,0.00,,,0.00,weatherlink.com 1.10,2013-01-22 18:35:00,
2013-01-22 13:50:00,8.9,2.0,30.12,NNW,334,2.0,10.0,74,0.00,,,0.00,weatherlink.com 1.10,2013-01-22 18:50:00,
2013-01-22 14:05:00,8.9,2.0,30.12,WNW,298,8.0,13.0,72,0.00,,,0.00,weatherlink.com 1.10,2013-01-22 19:05:00,
2013-01-22 14:20:00,10.0,2.0,30.12,NW,318,3.0,9.0,69,0.00,,,0.00,weatherlink.com 1.10,2013-01-22 19:20:00,
2013-01-22 14:38:00,11.2,1.0,30.13,NW,311,4.0,11.0,64,0.00,,,0.00,weatherlink.com 1.10,2013-01-22 19:38:00,
2013-01-22 14:50:00,11.8,2.0,30.13,NW,307,5.0,13.0,65,0.00,,,0.00,weatherlink.com 1.10,2013-01-22 19:50:00,
2013-01-22 15:05:00,10.5,1.0,30.13,WNW,283,4.0,14.0,64,0.00,,,0.00,weatherlink.com 1.10,2013-01-22 20:05:00,
2013-01-22 15:20:00,10.4,0.0,30.13,WNW,290,9.0,11.0,64,0.00,,,0.00,weatherlink.com 1.10,2013-01-22 20:20:00,
2013-01-22 15:35:00,11.0,1.0,30.13,NW,307,5.0,13.0,63,0.00,,,0.00,weatherlink.com 1.10,2013-01-22 20:35:00,
2013-01-22 15:50:00,11.1,-2.0,30.14,NNW,329,2.0,10.0,56,0.00,,,0.00,weatherlink.com 1.10,2013-01-22 20:50:00,
2013-01-22 16:05:00,11.5,0.0,30.14,South,172,1.0,9.0,59,0.00,,,0.00,weatherlink.com 1.10,2013-01-22 21:05:00,
2013-01-22 16:21:00,10.8,-1.0,30.15,WNW,287,1.0,14.0,58,0.00,,,0.00,weatherlink.com 1.10,2013-01-22 21:21:00,
2013-01-22 16:36:00,10.1,0.0,30.15,WNW,294,4.0,8.0,65,0.00,,,0.00,weatherlink.com 1.10,2013-01-22 21:36:00,
2013-01-22 16:51:00,9.5,0.0,30.16,WNW,302,4.0,11.0,66,0.00,,,0.00,weatherlink.com 1.10,2013-01-22 21:51:00,
2013-01-22 17:21:00,8.5,1.0,30.17,WNW,300,4.0,7.0,70,0.00,,,0.00,weatherlink.com 1.10,2013-01-22 22:21:00,
2013-01-22 18:06:00,7.3,0.0,30.18,WNW,298,0.0,4.0,72,0.00,,,0.00,weatherlink.com 1.10,2013-01-22 23:06:00,
2013-01-22 18:21:00,6.7,0.0,30.18,WNW,290,0.0,4.0,73,0.00,,,0.00,weatherlink.com 1.10,2013-01-22 23:21:00,
2013-01-22 18:36:00,6.4,0.0,30.18,WNW,290,1.0,2.0,75,0.00,,,0.00,weatherlink.com 1.10,2013-01-22 23:36:00,
2013-01-22 18:51:00,6.4,1.0,30.18,South,186,1.0,3.0,77,0.00,,,0.00,weatherlink.com 1.10,2013-01-22 23:51:00,
2013-01-22 19:06:00,6.3,1.0,30.19,North,356,0.0,3.0,78,0.00,,,0.00,weatherlink.com 1.10,2013-01-23 00:06:00,
2013-01-22 19:21:00,6.3,1.0,30.19,WNW,291,1.0,4.0,78,0.00,,,0.00,weatherlink.com 1.10,2013-01-23 00:21:00,
2013-01-22 19:37:00,6.4,1.0,30.20,WNW,297,3.0,6.0,77,0.00,,,0.00,weatherlink.com 1.10,2013-01-23 00:37:00,
2013-01-22 19:52:00,6.2,1.0,30.20,WNW,283,1.0,5.0,78,0.00,,,0.00,weatherlink.com 1.10,2013-01-23 00:52:00,
2013-01-22 20:07:00,5.7,0.0,30.20,WNW,298,1.0,3.0,78,0.00,,,0.00,weatherlink.com 1.10,2013-01-23 01:07:00,
2013-01-22 20:23:00,5.8,1.0,30.20,WNW,300,1.0,4.0,79,0.00,,,0.00,weatherlink.com 1.10,2013-01-23 01:23:00,
2013-01-22 20:37:00,6.0,1.0,30.20,WNW,297,0.0,5.0,79,0.00,,,0.00,weatherlink.com 1.10,2013-01-23 01:37:00,
2013-01-22 20:52:00,5.5,0.0,30.20,WNW,297,0.0,3.0,79,0.00,,,0.00,weatherlink.com 1.10,2013-01-23 01:52:00,
2013-01-22 21:07:00,4.8,0.0,30.20,West,281,0.0,3.0,80,0.00,,,0.00,weatherlink.com 1.10,2013-01-23 02:07:00,
2013-01-22 21:22:00,4.1,-1.0,30.20,WNW,288,0.0,2.0,80,0.00,,,0.00,weatherlink.com 1.10,2013-01-23 02:22:00,
2013-01-22 21:37:00,3.9,0.0,30.20,WNW,288,0.0,0.0,82,0.00,,,0.00,weatherlink.com 1.10,2013-01-23 02:37:00,
2013-01-22 21:52:00,3.5,-1.0,30.20,WNW,283,0.0,1.0,83,0.00,,,0.00,weatherlink.com 1.10,2013-01-23 02:52:00,
2013-01-22 22:07:00,2.9,-1.0,30.20,WNW,282,0.0,0.0,83,0.00,,,0.00,weatherlink.com 1.10,2013-01-23 03:07:00,
2013-01-22 22:22:00,2.5,-1.0,30.20,WNW,283,0.0,0.0,84,0.00,,,0.00,weatherlink.com 1.10,2013-01-23 03:22:00,
2013-01-22 22:37:00,2.2,-2.0,30.20,WNW,283,0.0,0.0,84,0.00,,,0.00,weatherlink.com 1.10,2013-01-23 03:37:00,
2013-01-22 22:52:00,1.9,-2.0,30.20,WNW,282,0.0,0.0,85,0.00,,,0.00,weatherlink.com 1.10,2013-01-23 03:52:00,
2013-01-22 23:23:00,0.8,-3.0,30.20,WNW,283,0.0,0.0,85,0.00,,,0.00,weatherlink.com 1.10,2013-01-23 04:23:00,
2013-01-22 23:38:00,0.5,-3.0,30.20,WNW,283,0.0,0.0,86,0.00,,,0.00,weatherlink.com 1.10,2013-01-23 04:38:00,
2013-01-22 23:53:00,0.1,-3.0,30.19,WNW,282,0.0,0.0,86,0.00,,,0.00,weatherlink.com 1.10,2013-01-23 04:53:00,